sensor_id;sensor_type;location;lat;lon;timestamp;temperature;humidity
25320;DHT22;13256;49.012;8.610;2023-02-15T00:05:30;1.00;99.90
25320;DHT22;13256;49.012;8.610;2023-02-15T00:07:58;1.00;99.90
25320;DHT22;13256;49.012;8.610;2023-02-15T00:10:26;1.00;99.90
25320;DHT22;13256;49.012;8.610;2023-02-15T00:12:56;1.00;99.90
25320;DHT22;13256;49.012;8.610;2023-02-15T00:15:24;1.10;99.90
25320;DHT22;13256;49.012;8.610;2023-02-15T00:17:52;1.10;99.90
25320;DHT22;13256;49.012;8.610;2023-02-15T00:20:21;1.10;99.90
25320;DHT22;13256;49.012;8.610;2023-02-15T00:22:48;1.10;99.90
25320;DHT22;13256;49.012;8.610;2023-02-15T00:25:15;1.20;99.90
25320;DHT22;13256;49.012;8.610;2023-02-15T00:27:41;1.20;99.90
25320;DHT22;13256;49.012;8.610;2023-02-15T00:30:10;1.30;99.90
25320;DHT22;13256;49.012;8.610;2023-02-15T00:32:36;1.30;99.90
25320;DHT22;13256;49.012;8.610;2023-02-15T00:35:03;1.30;99.90
25320;DHT22;13256;49.012;8.610;2023-02-15T00:37:33;1.30;99.90
25320;DHT22;13256;49.012;8.610;2023-02-15T00:40:06;1.30;99.90
25320;DHT22;13256;49.012;8.610;2023-02-15T00:42:33;1.20;99.90
25320;DHT22;13256;49.012;8.610;2023-02-15T00:45:04;1.20;99.90
25320;DHT22;13256;49.012;8.610;2023-02-15T00:47:34;1.10;99.90
25320;DHT22;13256;49.012;8.610;2023-02-15T00:50:06;1.10;99.90
25320;DHT22;13256;49.012;8.610;2023-02-15T00:52:34;1.10;99.90
25320;DHT22;13256;49.012;8.610;2023-02-15T00:55:03;1.00;99.90
25320;DHT22;13256;49.012;8.610;2023-02-15T00:58:15;0.90;99.90
25320;DHT22;13256;49.012;8.610;2023-02-15T01:01:15;1.00;99.90
25320;DHT22;13256;49.012;8.610;2023-02-15T01:03:45;1.00;99.90
25320;DHT22;13256;49.012;8.610;2023-02-15T01:06:14;1.00;99.90
25320;DHT22;13256;49.012;8.610;2023-02-15T01:09:11;1.00;99.90
25320;DHT22;13256;49.012;8.610;2023-02-15T01:11:43;1.10;99.90
25320;DHT22;13256;49.012;8.610;2023-02-15T01:14:11;1.00;99.90
25320;DHT22;13256;49.012;8.610;2023-02-15T01:16:43;1.10;99.90
25320;DHT22;13256;49.012;8.610;2023-02-15T01:19:12;1.10;99.90
25320;DHT22;13256;49.012;8.610;2023-02-15T01:21:44;1.20;99.90
25320;DHT22;13256;49.012;8.610;2023-02-15T01:24:15;1.20;99.90
25320;DHT22;13256;49.012;8.610;2023-02-15T01:26:44;1.30;99.90
25320;DHT22;13256;49.012;8.610;2023-02-15T01:29:22;1.20;99.90
25320;DHT22;13256;49.012;8.610;2023-02-15T01:31:49;1.20;99.90
25320;DHT22;13256;49.012;8.610;2023-02-15T01:34:16;1.30;99.90
25320;DHT22;13256;49.012;8.610;2023-02-15T01:36:47;1.30;99.90
25320;DHT22;13256;49.012;8.610;2023-02-15T01:39:30;1.30;99.90
25320;DHT22;13256;49.012;8.610;2023-02-15T01:41:57;1.40;99.90
25320;DHT22;13256;49.012;8.610;2023-02-15T01:44:47;1.50;99.90
25320;DHT22;13256;49.012;8.610;2023-02-15T01:50:26;1.50;99.90
25320;DHT22;13256;49.012;8.610;2023-02-15T01:53:37;1.60;99.90
25320;DHT22;13256;49.012;8.610;2023-02-15T01:56:35;1.60;99.90
25320;DHT22;13256;49.012;8.610;2023-02-15T01:59:14;1.60;99.90
25320;DHT22;13256;49.012;8.610;2023-02-15T02:01:52;1.50;99.90
25320;DHT22;13256;49.012;8.610;2023-02-15T02:04:54;1.60;99.90
25320;DHT22;13256;49.012;8.610;2023-02-15T02:07:38;1.60;99.90
25320;DHT22;13256;49.012;8.610;2023-02-15T02:10:21;1.60;99.90
25320;DHT22;13256;49.012;8.610;2023-02-15T02:13:31;1.50;99.90
25320;DHT22;13256;49.012;8.610;2023-02-15T02:30:48;1.20;99.90
25320;DHT22;13256;49.012;8.610;2023-02-15T02:36:47;1.10;99.90
25320;DHT22;13256;49.012;8.610;2023-02-15T02:39:22;1.10;99.90
25320;DHT22;13256;49.012;8.610;2023-02-15T02:42:35;1.10;99.90
25320;DHT22;13256;49.012;8.610;2023-02-15T02:45:25;1.10;99.90
25320;DHT22;13256;49.012;8.610;2023-02-15T02:48:01;1.10;99.90
25320;DHT22;13256;49.012;8.610;2023-02-15T02:50:35;1.10;99.90
25320;DHT22;13256;49.012;8.610;2023-02-15T02:53:09;1.10;99.90
25320;DHT22;13256;49.012;8.610;2023-02-15T02:56:30;1.10;99.90
25320;DHT22;13256;49.012;8.610;2023-02-15T02:59:12;1.00;99.90
25320;DHT22;13256;49.012;8.610;2023-02-15T03:02:16;1.00;99.90
25320;DHT22;13256;49.012;8.610;2023-02-15T03:04:55;1.10;99.90
25320;DHT22;13256;49.012;8.610;2023-02-15T03:07:33;1.10;99.90
25320;DHT22;13256;49.012;8.610;2023-02-15T03:10:02;1.00;99.90
25320;DHT22;13256;49.012;8.610;2023-02-15T03:12:36;1.00;99.90
25320;DHT22;13256;49.012;8.610;2023-02-15T03:15:16;1.00;99.90
25320;DHT22;13256;49.012;8.610;2023-02-15T03:17:47;0.90;99.90
25320;DHT22;13256;49.012;8.610;2023-02-15T03:20:26;0.90;99.90
25320;DHT22;13256;49.012;8.610;2023-02-15T03:23:06;0.90;99.90
25320;DHT22;13256;49.012;8.610;2023-02-15T03:26:06;0.90;99.90
25320;DHT22;13256;49.012;8.610;2023-02-15T03:28:42;0.90;99.90
25320;DHT22;13256;49.012;8.610;2023-02-15T03:31:20;0.90;99.90
25320;DHT22;13256;49.012;8.610;2023-02-15T03:34:04;1.00;99.90
25320;DHT22;13256;49.012;8.610;2023-02-15T03:46:36;1.10;99.90
25320;DHT22;13256;49.012;8.610;2023-02-15T03:49:24;1.20;99.90
25320;DHT22;13256;49.012;8.610;2023-02-15T03:55:22;1.20;99.90
25320;DHT22;13256;49.012;8.610;2023-02-15T03:57:58;1.20;99.90
25320;DHT22;13256;49.012;8.610;2023-02-15T04:00:56;1.30;99.90
25320;DHT22;13256;49.012;8.610;2023-02-15T04:04:06;1.40;99.90
25320;DHT22;13256;49.012;8.610;2023-02-15T04:06:38;1.40;99.90
25320;DHT22;13256;49.012;8.610;2023-02-15T04:09:05;1.40;99.90
25320;DHT22;13256;49.012;8.610;2023-02-15T04:11:58;1.40;99.90
25320;DHT22;13256;49.012;8.610;2023-02-15T04:14:50;1.50;99.90
25320;DHT22;13256;49.012;8.610;2023-02-15T04:17:54;1.40;99.90
25320;DHT22;13256;49.012;8.610;2023-02-15T04:20:28;1.40;99.90
25320;DHT22;13256;49.012;8.610;2023-02-15T04:23:17;1.40;99.90
25320;DHT22;13256;49.012;8.610;2023-02-15T04:26:06;1.40;99.90
25320;DHT22;13256;49.012;8.610;2023-02-15T04:28:33;1.50;99.90
25320;DHT22;13256;49.012;8.610;2023-02-15T04:31:34;1.50;99.90
25320;DHT22;13256;49.012;8.610;2023-02-15T04:34:10;1.50;99.90
25320;DHT22;13256;49.012;8.610;2023-02-15T04:36:46;1.50;99.90
25320;DHT22;13256;49.012;8.610;2023-02-15T04:40:00;1.50;99.90
25320;DHT22;13256;49.012;8.610;2023-02-15T04:42:27;1.40;99.90
25320;DHT22;13256;49.012;8.610;2023-02-15T04:44:55;1.30;99.90
25320;DHT22;13256;49.012;8.610;2023-02-15T04:47:24;1.20;99.90
25320;DHT22;13256;49.012;8.610;2023-02-15T04:49:57;1.20;99.90
25320;DHT22;13256;49.012;8.610;2023-02-15T04:52:26;1.20;99.90
25320;DHT22;13256;49.012;8.610;2023-02-15T04:54:55;1.10;99.90
25320;DHT22;13256;49.012;8.610;2023-02-15T04:57:27;1.10;99.90
25320;DHT22;13256;49.012;8.610;2023-02-15T04:59:56;1.00;99.90
25320;DHT22;13256;49.012;8.610;2023-02-15T05:02:53;0.90;99.90
25320;DHT22;13256;49.012;8.610;2023-02-15T05:05:26;0.80;99.90
25320;DHT22;13256;49.012;8.610;2023-02-15T05:07:57;0.80;99.90
25320;DHT22;13256;49.012;8.610;2023-02-15T05:10:28;0.80;99.90
25320;DHT22;13256;49.012;8.610;2023-02-15T05:12:55;0.90;99.90
25320;DHT22;13256;49.012;8.610;2023-02-15T05:15:21;0.90;99.90
25320;DHT22;13256;49.012;8.610;2023-02-15T05:17:53;0.80;99.90
25320;DHT22;13256;49.012;8.610;2023-02-15T05:20:24;0.80;99.90
25320;DHT22;13256;49.012;8.610;2023-02-15T05:22:53;0.90;99.90
25320;DHT22;13256;49.012;8.610;2023-02-15T05:25:48;0.90;99.90
25320;DHT22;13256;49.012;8.610;2023-02-15T05:28:43;0.80;99.90
25320;DHT22;13256;49.012;8.610;2023-02-15T05:31:16;0.70;99.90
25320;DHT22;13256;49.012;8.610;2023-02-15T05:34:00;0.80;99.90
25320;DHT22;13256;49.012;8.610;2023-02-15T05:36:27;0.80;99.90
25320;DHT22;13256;49.012;8.610;2023-02-15T05:38:56;0.70;99.90
25320;DHT22;13256;49.012;8.610;2023-02-15T05:41:37;0.70;99.90
25320;DHT22;13256;49.012;8.610;2023-02-15T05:44:08;0.60;99.90
25320;DHT22;13256;49.012;8.610;2023-02-15T05:46:38;0.70;99.90
25320;DHT22;13256;49.012;8.610;2023-02-15T05:49:07;0.60;99.90
25320;DHT22;13256;49.012;8.610;2023-02-15T05:51:38;0.60;99.90
25320;DHT22;13256;49.012;8.610;2023-02-15T05:54:05;0.60;99.90
25320;DHT22;13256;49.012;8.610;2023-02-15T05:56:34;0.60;99.90
25320;DHT22;13256;49.012;8.610;2023-02-15T05:59:06;0.60;99.90
25320;DHT22;13256;49.012;8.610;2023-02-15T06:01:37;0.50;99.90
25320;DHT22;13256;49.012;8.610;2023-02-15T06:04:08;0.50;99.90
25320;DHT22;13256;49.012;8.610;2023-02-15T06:06:38;0.40;99.90
25320;DHT22;13256;49.012;8.610;2023-02-15T06:09:05;0.50;99.90
25320;DHT22;13256;49.012;8.610;2023-02-15T06:11:40;0.40;99.90
25320;DHT22;13256;49.012;8.610;2023-02-15T06:14:09;0.50;99.90
25320;DHT22;13256;49.012;8.610;2023-02-15T06:16:36;0.50;99.90
25320;DHT22;13256;49.012;8.610;2023-02-15T06:19:08;0.50;99.90
25320;DHT22;13256;49.012;8.610;2023-02-15T06:21:41;0.50;99.90
25320;DHT22;13256;49.012;8.610;2023-02-15T06:24:13;0.50;99.90
25320;DHT22;13256;49.012;8.610;2023-02-15T06:26:42;0.40;99.90
25320;DHT22;13256;49.012;8.610;2023-02-15T06:29:09;0.40;99.90
25320;DHT22;13256;49.012;8.610;2023-02-15T06:31:38;0.30;99.90
25320;DHT22;13256;49.012;8.610;2023-02-15T06:34:07;0.30;99.90
25320;DHT22;13256;49.012;8.610;2023-02-15T06:36:40;0.40;99.90
25320;DHT22;13256;49.012;8.610;2023-02-15T06:39:08;0.30;99.90
25320;DHT22;13256;49.012;8.610;2023-02-15T06:41:37;0.30;99.90
25320;DHT22;13256;49.012;8.610;2023-02-15T06:44:08;0.30;99.90
25320;DHT22;13256;49.012;8.610;2023-02-15T06:46:37;0.30;99.90
25320;DHT22;13256;49.012;8.610;2023-02-15T06:49:08;0.20;99.90
25320;DHT22;13256;49.012;8.610;2023-02-15T06:51:41;0.20;99.90
25320;DHT22;13256;49.012;8.610;2023-02-15T06:54:11;0.30;99.90
25320;DHT22;13256;49.012;8.610;2023-02-15T06:56:42;0.20;99.90
25320;DHT22;13256;49.012;8.610;2023-02-15T06:59:15;0.30;99.90
25320;DHT22;13256;49.012;8.610;2023-02-15T07:01:45;0.30;99.90
25320;DHT22;13256;49.012;8.610;2023-02-15T07:04:16;0.30;99.90
25320;DHT22;13256;49.012;8.610;2023-02-15T07:06:44;0.30;99.90
25320;DHT22;13256;49.012;8.610;2023-02-15T07:09:12;0.30;99.90
25320;DHT22;13256;49.012;8.610;2023-02-15T07:12:08;0.40;99.90
25320;DHT22;13256;49.012;8.610;2023-02-15T07:15:02;0.50;99.90
25320;DHT22;13256;49.012;8.610;2023-02-15T07:17:33;0.50;99.90
25320;DHT22;13256;49.012;8.610;2023-02-15T07:20:14;0.50;99.90
25320;DHT22;13256;49.012;8.610;2023-02-15T07:22:49;0.50;99.90
25320;DHT22;13256;49.012;8.610;2023-02-15T07:25:28;0.50;99.90
25320;DHT22;13256;49.012;8.610;2023-02-15T07:28:00;0.50;99.90
25320;DHT22;13256;49.012;8.610;2023-02-15T07:30:29;0.50;99.90
25320;DHT22;13256;49.012;8.610;2023-02-15T07:33:04;0.40;99.90
25320;DHT22;13256;49.012;8.610;2023-02-15T07:35:57;0.40;99.90
25320;DHT22;13256;49.012;8.610;2023-02-15T07:38:26;0.30;99.90
25320;DHT22;13256;49.012;8.610;2023-02-15T07:41:05;0.30;99.90
25320;DHT22;13256;49.012;8.610;2023-02-15T07:43:35;0.30;99.90
25320;DHT22;13256;49.012;8.610;2023-02-15T07:46:10;0.30;99.90
25320;DHT22;13256;49.012;8.610;2023-02-15T07:48:39;0.30;99.90
25320;DHT22;13256;49.012;8.610;2023-02-15T07:51:11;0.30;99.90
25320;DHT22;13256;49.012;8.610;2023-02-15T07:53:41;0.30;99.90
25320;DHT22;13256;49.012;8.610;2023-02-15T07:56:13;0.40;99.90
25320;DHT22;13256;49.012;8.610;2023-02-15T07:58:44;0.30;99.90
25320;DHT22;13256;49.012;8.610;2023-02-15T08:01:28;0.40;99.90
25320;DHT22;13256;49.012;8.610;2023-02-15T08:03:56;0.40;99.90
25320;DHT22;13256;49.012;8.610;2023-02-15T08:06:28;0.40;99.90
25320;DHT22;13256;49.012;8.610;2023-02-15T08:09:08;0.40;99.90
25320;DHT22;13256;49.012;8.610;2023-02-15T08:11:38;0.40;99.90
25320;DHT22;13256;49.012;8.610;2023-02-15T08:16:39;0.40;99.90
25320;DHT22;13256;49.012;8.610;2023-02-15T08:21:53;0.30;99.90
25320;DHT22;13256;49.012;8.610;2023-02-15T08:24:25;0.30;99.90
25320;DHT22;13256;49.012;8.610;2023-02-15T08:26:55;0.30;99.90
25320;DHT22;13256;49.012;8.610;2023-02-15T08:29:24;0.30;99.90
25320;DHT22;13256;49.012;8.610;2023-02-15T08:32:18;0.20;99.90
25320;DHT22;13256;49.012;8.610;2023-02-15T08:34:51;0.20;99.90
25320;DHT22;13256;49.012;8.610;2023-02-15T08:37:19;0.20;99.90
25320;DHT22;13256;49.012;8.610;2023-02-15T08:39:59;0.10;99.90
25320;DHT22;13256;49.012;8.610;2023-02-15T08:42:27;0.10;99.90
25320;DHT22;13256;49.012;8.610;2023-02-15T08:50:29;0.20;99.90
25320;DHT22;13256;49.012;8.610;2023-02-15T08:56:33;0.40;99.90
25320;DHT22;13256;49.012;8.610;2023-02-15T08:59:05;0.40;99.90
25320;DHT22;13256;49.012;8.610;2023-02-15T09:01:40;0.40;99.90
25320;DHT22;13256;49.012;8.610;2023-02-15T09:04:09;0.40;99.90
25320;DHT22;13256;49.012;8.610;2023-02-15T09:06:42;0.40;99.90
25320;DHT22;13256;49.012;8.610;2023-02-15T09:12:23;0.50;99.90
25320;DHT22;13256;49.012;8.610;2023-02-15T09:23:49;0.80;99.90
25320;DHT22;13256;49.012;8.610;2023-02-15T09:32:37;0.80;99.90
25320;DHT22;13256;49.012;8.610;2023-02-15T09:35:07;0.80;99.90
25320;DHT22;13256;49.012;8.610;2023-02-15T09:37:36;0.90;99.90
25320;DHT22;13256;49.012;8.610;2023-02-15T09:40:07;0.90;99.90
25320;DHT22;13256;49.012;8.610;2023-02-15T09:45:23;1.00;99.90
25320;DHT22;13256;49.012;8.610;2023-02-15T09:56:55;1.10;99.90
25320;DHT22;13256;49.012;8.610;2023-02-15T10:05:00;1.20;99.90
25320;DHT22;13256;49.012;8.610;2023-02-15T10:08:02;1.20;99.90
25320;DHT22;13256;49.012;8.610;2023-02-15T10:28:18;1.30;99.90
25320;DHT22;13256;49.012;8.610;2023-02-15T10:34:25;1.20;99.90
25320;DHT22;13256;49.012;8.610;2023-02-15T10:43:05;1.30;99.90
25320;DHT22;13256;49.012;8.610;2023-02-15T10:51:20;1.60;99.90
25320;DHT22;13256;49.012;8.610;2023-02-15T10:54:21;1.70;99.90
25320;DHT22;13256;49.012;8.610;2023-02-15T10:57:22;1.80;99.90
25320;DHT22;13256;49.012;8.610;2023-02-15T11:00:27;1.80;99.90
25320;DHT22;13256;49.012;8.610;2023-02-15T11:09:01;2.10;99.90
25320;DHT22;13256;49.012;8.610;2023-02-15T11:11:50;2.30;99.90
25320;DHT22;13256;49.012;8.610;2023-02-15T11:14:33;2.40;99.90
25320;DHT22;13256;49.012;8.610;2023-02-15T11:17:33;2.30;99.90
25320;DHT22;13256;49.012;8.610;2023-02-15T11:24:00;2.20;99.90
25320;DHT22;13256;49.012;8.610;2023-02-15T11:26:48;2.30;99.90
25320;DHT22;13256;49.012;8.610;2023-02-15T11:32:21;2.50;99.90
25320;DHT22;13256;49.012;8.610;2023-02-15T11:35:04;2.50;99.90
25320;DHT22;13256;49.012;8.610;2023-02-15T11:37:57;2.60;99.90
25320;DHT22;13256;49.012;8.610;2023-02-15T11:41:13;2.70;99.90
25320;DHT22;13256;49.012;8.610;2023-02-15T11:43:50;2.80;99.90
25320;DHT22;13256;49.012;8.610;2023-02-15T11:46:20;2.80;99.90
25320;DHT22;13256;49.012;8.610;2023-02-15T11:48:51;2.70;99.90
25320;DHT22;13256;49.012;8.610;2023-02-15T11:51:22;2.70;99.90
25320;DHT22;13256;49.012;8.610;2023-02-15T11:53:55;2.70;99.90
25320;DHT22;13256;49.012;8.610;2023-02-15T11:56:25;2.60;99.90
25320;DHT22;13256;49.012;8.610;2023-02-15T11:59:31;2.70;99.90
25320;DHT22;13256;49.012;8.610;2023-02-15T12:02:17;2.70;99.90
25320;DHT22;13256;49.012;8.610;2023-02-15T12:04:55;2.80;99.90
25320;DHT22;13256;49.012;8.610;2023-02-15T12:07:46;2.80;99.90
25320;DHT22;13256;49.012;8.610;2023-02-15T12:10:23;2.80;99.90
25320;DHT22;13256;49.012;8.610;2023-02-15T12:15:59;2.90;99.90
25320;DHT22;13256;49.012;8.610;2023-02-15T12:18:40;3.10;99.90
25320;DHT22;13256;49.012;8.610;2023-02-15T12:21:39;3.30;99.90
25320;DHT22;13256;49.012;8.610;2023-02-15T12:24:34;3.30;99.90
25320;DHT22;13256;49.012;8.610;2023-02-15T12:27:14;3.10;99.90
25320;DHT22;13256;49.012;8.610;2023-02-15T12:29:51;3.20;99.90
25320;DHT22;13256;49.012;8.610;2023-02-15T12:33:15;3.30;99.90
25320;DHT22;13256;49.012;8.610;2023-02-15T12:35:45;3.30;99.90
25320;DHT22;13256;49.012;8.610;2023-02-15T12:38:24;3.30;99.90
25320;DHT22;13256;49.012;8.610;2023-02-15T12:41:03;3.30;99.90
25320;DHT22;13256;49.012;8.610;2023-02-15T12:43:35;3.30;99.90
25320;DHT22;13256;49.012;8.610;2023-02-15T12:46:23;3.30;99.90
25320;DHT22;13256;49.012;8.610;2023-02-15T12:49:17;3.40;99.90
25320;DHT22;13256;49.012;8.610;2023-02-15T12:54:51;3.70;99.90
25320;DHT22;13256;49.012;8.610;2023-02-15T12:57:28;3.80;99.90
25320;DHT22;13256;49.012;8.610;2023-02-15T12:59:59;3.90;99.90
25320;DHT22;13256;49.012;8.610;2023-02-15T13:02:33;4.00;99.90
25320;DHT22;13256;49.012;8.610;2023-02-15T13:08:27;4.10;99.90
25320;DHT22;13256;49.012;8.610;2023-02-15T13:11:11;4.20;99.90
25320;DHT22;13256;49.012;8.610;2023-02-15T13:16:53;4.30;99.90
25320;DHT22;13256;49.012;8.610;2023-02-15T13:19:50;4.40;99.90
25320;DHT22;13256;49.012;8.610;2023-02-15T13:22:22;4.50;99.90
25320;DHT22;13256;49.012;8.610;2023-02-15T13:24:57;4.50;99.90
25320;DHT22;13256;49.012;8.610;2023-02-15T13:27:38;4.60;99.90
25320;DHT22;13256;49.012;8.610;2023-02-15T13:30:35;4.60;99.90
25320;DHT22;13256;49.012;8.610;2023-02-15T13:33:39;4.40;99.90
25320;DHT22;13256;49.012;8.610;2023-02-15T13:39:30;4.80;99.90
25320;DHT22;13256;49.012;8.610;2023-02-15T13:47:49;6.10;99.90
25320;DHT22;13256;49.012;8.610;2023-02-15T14:01:42;8.00;99.90
25320;DHT22;13256;49.012;8.610;2023-02-15T14:10:03;8.40;99.90
25320;DHT22;13256;49.012;8.610;2023-02-15T14:20:56;8.30;99.90
25320;DHT22;13256;49.012;8.610;2023-02-15T14:23:52;8.10;99.90
25320;DHT22;13256;49.012;8.610;2023-02-15T14:26:56;8.40;99.90
25320;DHT22;13256;49.012;8.610;2023-02-15T14:29:53;8.70;99.90
25320;DHT22;13256;49.012;8.610;2023-02-15T14:32:44;8.70;99.90
25320;DHT22;13256;49.012;8.610;2023-02-15T14:35:37;8.40;99.90
25320;DHT22;13256;49.012;8.610;2023-02-15T14:38:16;8.50;99.90
25320;DHT22;13256;49.012;8.610;2023-02-15T14:40:50;8.80;99.90
25320;DHT22;13256;49.012;8.610;2023-02-15T15:05:36;8.70;99.90
25320;DHT22;13256;49.012;8.610;2023-02-15T15:08:47;8.70;99.90
25320;DHT22;13256;49.012;8.610;2023-02-15T15:11:37;8.60;99.90
25320;DHT22;13256;49.012;8.610;2023-02-15T15:14:39;8.50;99.90
25320;DHT22;13256;49.012;8.610;2023-02-15T15:17:10;8.60;99.90
25320;DHT22;13256;49.012;8.610;2023-02-15T15:22:25;8.80;99.90
25320;DHT22;13256;49.012;8.610;2023-02-15T15:51:33;7.80;99.90
25320;DHT22;13256;49.012;8.610;2023-02-15T15:54:11;7.70;99.90
25320;DHT22;13256;49.012;8.610;2023-02-15T15:56:54;7.60;99.90
25320;DHT22;13256;49.012;8.610;2023-02-15T15:59:33;7.40;99.90
25320;DHT22;13256;49.012;8.610;2023-02-15T16:02:24;7.30;99.90
25320;DHT22;13256;49.012;8.610;2023-02-15T16:05:24;7.10;99.90
25320;DHT22;13256;49.012;8.610;2023-02-15T16:07:52;7.00;99.90
25320;DHT22;13256;49.012;8.610;2023-02-15T16:10:26;7.00;99.90
25320;DHT22;13256;49.012;8.610;2023-02-15T16:12:55;6.80;99.90
25320;DHT22;13256;49.012;8.610;2023-02-15T16:15:35;6.80;99.90
25320;DHT22;13256;49.012;8.610;2023-02-15T16:18:05;6.60;99.90
25320;DHT22;13256;49.012;8.610;2023-02-15T16:20:36;6.50;99.90
25320;DHT22;13256;49.012;8.610;2023-02-15T16:28:53;6.40;99.90
25320;DHT22;13256;49.012;8.610;2023-02-15T16:31:22;6.30;99.90
25320;DHT22;13256;49.012;8.610;2023-02-15T16:33:57;6.30;99.90
25320;DHT22;13256;49.012;8.610;2023-02-15T16:36:27;6.20;99.90
25320;DHT22;13256;49.012;8.610;2023-02-15T16:41:29;6.00;99.90
25320;DHT22;13256;49.012;8.610;2023-02-15T16:44:05;6.00;99.90
25320;DHT22;13256;49.012;8.610;2023-02-15T16:46:52;5.90;99.90
25320;DHT22;13256;49.012;8.610;2023-02-15T16:49:25;5.80;99.90
25320;DHT22;13256;49.012;8.610;2023-02-15T16:54:43;5.50;99.90
25320;DHT22;13256;49.012;8.610;2023-02-15T16:57:35;5.40;99.90
25320;DHT22;13256;49.012;8.610;2023-02-15T17:00:20;5.20;99.90
25320;DHT22;13256;49.012;8.610;2023-02-15T17:03:02;5.00;99.90
25320;DHT22;13256;49.012;8.610;2023-02-15T17:05:32;4.90;99.90
25320;DHT22;13256;49.012;8.610;2023-02-15T17:10:40;4.60;99.90
25320;DHT22;13256;49.012;8.610;2023-02-15T17:13:13;4.50;99.90
25320;DHT22;13256;49.012;8.610;2023-02-15T17:21:47;3.90;99.90
25320;DHT22;13256;49.012;8.610;2023-02-15T17:24:32;3.80;99.90
25320;DHT22;13256;49.012;8.610;2023-02-15T17:27:22;3.60;99.90
25320;DHT22;13256;49.012;8.610;2023-02-15T17:29:58;3.50;99.90
25320;DHT22;13256;49.012;8.610;2023-02-15T17:32:29;3.30;99.90
25320;DHT22;13256;49.012;8.610;2023-02-15T17:35:07;3.20;99.90
25320;DHT22;13256;49.012;8.610;2023-02-15T17:42:49;3.00;99.90
25320;DHT22;13256;49.012;8.610;2023-02-15T17:45:20;2.90;99.90
25320;DHT22;13256;49.012;8.610;2023-02-15T17:47:48;2.90;99.90
25320;DHT22;13256;49.012;8.610;2023-02-15T17:50:26;2.80;99.90
25320;DHT22;13256;49.012;8.610;2023-02-15T17:52:55;2.70;99.90
25320;DHT22;13256;49.012;8.610;2023-02-15T17:55:26;2.60;99.90
25320;DHT22;13256;49.012;8.610;2023-02-15T17:58:13;2.50;99.90
25320;DHT22;13256;49.012;8.610;2023-02-15T18:00:51;2.50;99.90
25320;DHT22;13256;49.012;8.610;2023-02-15T18:03:50;2.40;99.90
25320;DHT22;13256;49.012;8.610;2023-02-15T18:06:38;2.30;99.90
25320;DHT22;13256;49.012;8.610;2023-02-15T18:28:04;2.00;99.90
25320;DHT22;13256;49.012;8.610;2023-02-15T18:30:35;2.00;99.90
25320;DHT22;13256;49.012;8.610;2023-02-15T18:33:03;2.00;99.90
25320;DHT22;13256;49.012;8.610;2023-02-15T18:35:40;1.90;99.90
25320;DHT22;13256;49.012;8.610;2023-02-15T18:38:37;1.80;99.90
25320;DHT22;13256;49.012;8.610;2023-02-15T18:41:03;1.80;99.90
25320;DHT22;13256;49.012;8.610;2023-02-15T18:43:33;1.70;99.90
25320;DHT22;13256;49.012;8.610;2023-02-15T18:46:00;1.60;99.90
25320;DHT22;13256;49.012;8.610;2023-02-15T18:48:30;1.60;99.90
25320;DHT22;13256;49.012;8.610;2023-02-15T18:50:58;1.60;99.90
25320;DHT22;13256;49.012;8.610;2023-02-15T18:53:31;1.50;99.90
25320;DHT22;13256;49.012;8.610;2023-02-15T18:55:59;1.50;99.90
25320;DHT22;13256;49.012;8.610;2023-02-15T18:58:26;1.40;99.90
25320;DHT22;13256;49.012;8.610;2023-02-15T19:01:20;1.40;99.90
25320;DHT22;13256;49.012;8.610;2023-02-15T19:03:50;1.30;99.90
25320;DHT22;13256;49.012;8.610;2023-02-15T19:06:22;1.30;99.90
25320;DHT22;13256;49.012;8.610;2023-02-15T19:08:51;1.30;99.90
25320;DHT22;13256;49.012;8.610;2023-02-15T19:11:23;1.40;99.90
25320;DHT22;13256;49.012;8.610;2023-02-15T19:13:57;1.40;99.90
25320;DHT22;13256;49.012;8.610;2023-02-15T19:16:32;1.40;99.90
25320;DHT22;13256;49.012;8.610;2023-02-15T19:19:07;1.50;99.90
25320;DHT22;13256;49.012;8.610;2023-02-15T19:21:37;1.50;99.90
25320;DHT22;13256;49.012;8.610;2023-02-15T19:24:13;1.50;99.90
25320;DHT22;13256;49.012;8.610;2023-02-15T19:27:35;1.50;99.90
25320;DHT22;13256;49.012;8.610;2023-02-15T19:30:17;1.50;99.90
25320;DHT22;13256;49.012;8.610;2023-02-15T19:33:22;1.40;99.90
25320;DHT22;13256;49.012;8.610;2023-02-15T19:35:51;1.40;99.90
25320;DHT22;13256;49.012;8.610;2023-02-15T19:38:32;1.30;99.90
25320;DHT22;13256;49.012;8.610;2023-02-15T19:41:05;1.20;99.90
25320;DHT22;13256;49.012;8.610;2023-02-15T19:43:34;1.20;99.90
25320;DHT22;13256;49.012;8.610;2023-02-15T19:46:04;1.20;99.90
25320;DHT22;13256;49.012;8.610;2023-02-15T19:48:32;1.20;99.90
25320;DHT22;13256;49.012;8.610;2023-02-15T19:51:04;1.20;99.90
25320;DHT22;13256;49.012;8.610;2023-02-15T19:53:30;1.20;99.90
25320;DHT22;13256;49.012;8.610;2023-02-15T19:56:02;1.10;99.90
25320;DHT22;13256;49.012;8.610;2023-02-15T19:58:38;1.00;99.90
25320;DHT22;13256;49.012;8.610;2023-02-15T20:01:08;0.80;99.90
25320;DHT22;13256;49.012;8.610;2023-02-15T20:03:37;0.70;99.90
25320;DHT22;13256;49.012;8.610;2023-02-15T20:06:05;0.70;99.90
25320;DHT22;13256;49.012;8.610;2023-02-15T20:08:39;0.70;99.90
25320;DHT22;13256;49.012;8.610;2023-02-15T20:11:10;0.60;99.90
25320;DHT22;13256;49.012;8.610;2023-02-15T20:13:38;0.70;99.90
25320;DHT22;13256;49.012;8.610;2023-02-15T20:16:11;0.60;99.90
25320;DHT22;13256;49.012;8.610;2023-02-15T20:18:40;0.70;99.90
25320;DHT22;13256;49.012;8.610;2023-02-15T20:21:37;0.70;99.90
25320;DHT22;13256;49.012;8.610;2023-02-15T20:24:05;0.60;99.90
25320;DHT22;13256;49.012;8.610;2023-02-15T20:26:33;0.60;99.90
25320;DHT22;13256;49.012;8.610;2023-02-15T20:29:12;0.60;99.90
25320;DHT22;13256;49.012;8.610;2023-02-15T20:31:40;0.60;99.90
25320;DHT22;13256;49.012;8.610;2023-02-15T20:34:08;0.60;99.90
25320;DHT22;13256;49.012;8.610;2023-02-15T20:36:41;0.60;99.90
25320;DHT22;13256;49.012;8.610;2023-02-15T20:39:16;0.60;99.90
25320;DHT22;13256;49.012;8.610;2023-02-15T20:42:23;0.60;99.90
25320;DHT22;13256;49.012;8.610;2023-02-15T20:44:50;0.70;99.90
25320;DHT22;13256;49.012;8.610;2023-02-15T20:47:20;0.70;99.90
25320;DHT22;13256;49.012;8.610;2023-02-15T20:49:51;0.70;99.90
25320;DHT22;13256;49.012;8.610;2023-02-15T20:52:24;0.70;99.90
25320;DHT22;13256;49.012;8.610;2023-02-15T20:54:51;0.70;99.90
25320;DHT22;13256;49.012;8.610;2023-02-15T20:57:24;0.70;99.90
25320;DHT22;13256;49.012;8.610;2023-02-15T20:59:59;0.70;99.90
25320;DHT22;13256;49.012;8.610;2023-02-15T21:02:26;0.70;99.90
25320;DHT22;13256;49.012;8.610;2023-02-15T21:06:02;0.70;99.90
25320;DHT22;13256;49.012;8.610;2023-02-15T21:08:33;0.60;99.90
25320;DHT22;13256;49.012;8.610;2023-02-15T21:11:03;0.60;99.90
25320;DHT22;13256;49.012;8.610;2023-02-15T21:13:41;0.60;99.90
25320;DHT22;13256;49.012;8.610;2023-02-15T21:16:16;0.50;99.90
25320;DHT22;13256;49.012;8.610;2023-02-15T21:18:54;0.40;99.90
25320;DHT22;13256;49.012;8.610;2023-02-15T21:21:29;0.40;99.90
25320;DHT22;13256;49.012;8.610;2023-02-15T21:24:00;0.40;99.90
25320;DHT22;13256;49.012;8.610;2023-02-15T21:26:26;0.40;99.90